^^
Grace C. Lehan Memorial Weather Station Historical Data
Daily Summary for March 12, 2022 Units:  Both    English   Metric
Daily Weekly Monthly Yearly
  High: Low: Average:
Temperature: 70.6 °F /  21.4 °C 54.1 °F /  12.3 °C 64.9 °F /  18.3 °C
Dew Point: 68.5 °F /  20.3 °C 48 °F /  8.9 °C 60 °F /  15.6 °C
Humidity: 96% 64% 85%
Wind Speed: 10.5mph /  16.9km/h - 2.4mph /  3.9km/h
Wind Gust: 24mph /  38.6km/h - -
Wind- - WSW
Pressure: 29.74 in /  1007 hPa 29.35 in /  993.8 hPa -
Precipitation: 0.26 in /  6.6 mm    
 
 
Tabular Data for March 12, 2022
Time Temperature Dew Point Pressure Wind Wind Speed Wind Gust Humidity Rainfall Rate (Hourly) solar
00:04 68.5 °F /  20.3 °C 67.3 °F /  19.6 °C 29.58in /  1001.6hPa South 4mph /  6.4km/h 14mph /  22.5km/h 96% 0.05in /  1.27mm 0 W/m2
00:09 68.3 °F /  20.2 °C 67.1 °F /  19.5 °C 29.58in /  1001.6hPa SSW 3.7mph /  6km/h 10mph /  16.1km/h 96% 0.05in /  1.27mm 0 W/m2
00:14 68.2 °F /  20.1 °C 67 °F /  19.4 °C 29.58in /  1001.6hPa SSW 4mph /  6.4km/h 12mph /  19.3km/h 96% 0.05in /  1.27mm 0 W/m2
00:19 68.1 °F /  20.1 °C 66.9 °F /  19.4 °C 29.57in /  1001.2hPa SSW 3.3mph /  5.3km/h 12mph /  19.3km/h 96% 0.05in /  1.27mm 0 W/m2
00:24 68.1 °F /  20.1 °C 66.9 °F /  19.4 °C 29.57in /  1001.2hPa SSW 3.6mph /  5.8km/h 12mph /  19.3km/h 96% 0.05in /  1.27mm 0 W/m2
00:29 68.1 °F /  20.1 °C 66.9 °F /  19.4 °C 29.57in /  1001.2hPa SSW 4.5mph /  7.2km/h 12mph /  19.3km/h 96% 0.05in /  1.27mm 0 W/m2
00:34 68.1 °F /  20.1 °C 66.9 °F /  19.4 °C 29.57in /  1001.2hPa SSW 3mph /  4.8km/h 12mph /  19.3km/h 96% 0.05in /  1.27mm 0 W/m2
00:39 68.2 °F /  20.1 °C 67 °F /  19.4 °C 29.56in /  1000.9hPa SSW 3mph /  4.8km/h 10mph /  16.1km/h 96% 0.01in /  0.25mm 0 W/m2
00:44 68.3 °F /  20.2 °C 67.1 °F /  19.5 °C 29.56in /  1000.9hPa SSW 3.7mph /  6km/h 10mph /  16.1km/h 96% 0.01in /  0.25mm 0 W/m2
00:49 68.3 °F /  20.2 °C 67.1 °F /  19.5 °C 29.56in /  1000.9hPa South 2.4mph /  3.9km/h 10mph /  16.1km/h 96% 0.01in /  0.25mm 0 W/m2
00:54 68.4 °F /  20.2 °C 67.2 °F /  19.6 °C 29.56in /  1000.9hPa South 2.6mph /  4.2km/h 11mph /  17.7km/h 96% 0.01in /  0.25mm 0 W/m2
00:59 68.4 °F /  20.2 °C 67.3 °F /  19.6 °C 29.56in /  1000.9hPa South 2.5mph /  4km/h 11mph /  17.7km/h 96% 0.01in /  0.25mm 0 W/m2
01:04 68.4 °F /  20.2 °C 67.3 °F /  19.6 °C 29.55in /  1000.6hPa South 2.2mph /  3.5km/h 11mph /  17.7km/h 96% 0.01in /  0.25mm 0 W/m2
01:09 68.4 °F /  20.2 °C 67.2 °F /  19.6 °C 29.55in /  1000.6hPa South 2.3mph /  3.7km/h 10mph /  16.1km/h 96% 0.00in /  0mm 0 W/m2
01:14 68.4 °F /  20.2 °C 67.2 °F /  19.6 °C 29.55in /  1000.6hPa South 2.9mph /  4.7km/h 10mph /  16.1km/h 96% 0.00in /  0mm 0 W/m2
01:19 68.4 °F /  20.2 °C 67.2 °F /  19.6 °C 29.55in /  1000.6hPa South 2.3mph /  3.7km/h 10mph /  16.1km/h 96% 0.00in /  0mm 0 W/m2
01:24 68.5 °F /  20.3 °C 67.3 °F /  19.6 °C 29.54in /  1000.2hPa South 1.9mph /  3.1km/h 10mph /  16.1km/h 96% 0.00in /  0mm 0 W/m2
01:29 68.5 °F /  20.3 °C 67.3 °F /  19.6 °C 29.54in /  1000.2hPa South 0.9mph /  1.4km/h 10mph /  16.1km/h 96% 0.00in /  0mm 0 W/m2
01:34 68.5 °F /  20.3 °C 67.3 °F /  19.6 °C 29.53in /  999.9hPa South 1.1mph /  1.8km/h 10mph /  16.1km/h 96% 0.00in /  0mm 0 W/m2
01:39 68.5 °F /  20.3 °C 67.3 °F /  19.6 °C 29.53in /  999.9hPa South 1.2mph /  1.9km/h 9mph /  14.5km/h 96% 0.00in /  0mm 0 W/m2
01:44 68.6 °F /  20.3 °C 67.4 °F /  19.7 °C 29.53in /  999.9hPa South 1.6mph /  2.6km/h 10mph /  16.1km/h 96% 0.00in /  0mm 0 W/m2
01:49 68.6 °F /  20.3 °C 67.4 °F /  19.7 °C 29.53in /  999.9hPa South 2.5mph /  4km/h 10mph /  16.1km/h 96% 0.00in /  0mm 0 W/m2
01:54 68.7 °F /  20.4 °C 67.5 °F /  19.7 °C 29.52in /  999.5hPa South 2.9mph /  4.7km/h 10mph /  16.1km/h 96% 0.00in /  0mm 0 W/m2
01:59 68.8 °F /  20.4 °C 67.6 °F /  19.8 °C 29.52in /  999.5hPa South 1.6mph /  2.6km/h 10mph /  16.1km/h 96% 0.00in /  0mm 0 W/m2
02:04 68.8 °F /  20.4 °C 67.6 °F /  19.8 °C 29.51in /  999.2hPa South 2.4mph /  3.9km/h 10mph /  16.1km/h 96% 0.00in /  0mm 0 W/m2
02:09 68.9 °F /  20.5 °C 67.8 °F /  19.9 °C 29.51in /  999.2hPa South 2.7mph /  4.3km/h 7mph /  11.3km/h 96% 0.00in /  0mm 0 W/m2
02:14 69 °F /  20.6 °C 67.8 °F /  19.9 °C 29.51in /  999.2hPa South 2.3mph /  3.7km/h 7mph /  11.3km/h 96% 0.00in /  0mm 0 W/m2
02:19 69.2 °F /  20.7 °C 68 °F /  20 °C 29.50in /  998.9hPa South 3.2mph /  5.1km/h 9mph /  14.5km/h 96% 0.00in /  0mm 0 W/m2
02:24 69.3 °F /  20.7 °C 68.1 °F /  20.1 °C 29.50in /  998.9hPa South 2.3mph /  3.7km/h 9mph /  14.5km/h 96% 0.00in /  0mm 0 W/m2
02:29 69.4 °F /  20.8 °C 68.2 °F /  20.1 °C 29.49in /  998.5hPa South 2.9mph /  4.7km/h 11mph /  17.7km/h 96% 0.00in /  0mm 0 W/m2
02:34 69.4 °F /  20.8 °C 68.2 °F /  20.1 °C 29.49in /  998.5hPa South 2.1mph /  3.4km/h 11mph /  17.7km/h 96% 0.00in /  0mm 0 W/m2
02:39 69.5 °F /  20.8 °C 68.3 °F /  20.2 °C 29.49in /  998.5hPa South 4.2mph /  6.8km/h 10mph /  16.1km/h 96% 0.00in /  0mm 0 W/m2
02:44 69.5 °F /  20.8 °C 68.3 °F /  20.2 °C 29.48in /  998.2hPa South 2.9mph /  4.7km/h 11mph /  17.7km/h 96% 0.00in /  0mm 0 W/m2
02:49 69.5 °F /  20.8 °C 68.3 °F /  20.2 °C 29.48in /  998.2hPa South 4.4mph /  7.1km/h 11mph /  17.7km/h 96% 0.00in /  0mm 0 W/m2
02:54 69.6 °F /  20.9 °C 68.4 °F /  20.2 °C 29.48in /  998.2hPa South 3.2mph /  5.1km/h 16mph /  25.7km/h 96% 0.00in /  0mm 0 W/m2
02:59 69.6 °F /  20.9 °C 68.4 °F /  20.2 °C 29.47in /  997.9hPa SSW 2.6mph /  4.2km/h 16mph /  25.7km/h 96% 0.00in /  0mm 0 W/m2
03:04 69.7 °F /  20.9 °C 68.5 °F /  20.3 °C 29.46in /  997.5hPa South 2.9mph /  4.7km/h 16mph /  25.7km/h 96% 0.00in /  0mm 0 W/m2
03:09 69.7 °F /  20.9 °C 68.5 °F /  20.3 °C 29.46in /  997.5hPa South 3.6mph /  5.8km/h 13mph /  20.9km/h 96% 0.00in /  0mm 0 W/m2
03:14 69.7 °F /  20.9 °C 68.5 °F /  20.3 °C 29.46in /  997.5hPa South 3.5mph /  5.6km/h 13mph /  20.9km/h 96% 0.00in /  0mm 0 W/m2
03:19 69.7 °F /  20.9 °C 68.5 °F /  20.3 °C 29.46in /  997.5hPa South 3.2mph /  5.1km/h 13mph /  20.9km/h 96% 0.00in /  0mm 0 W/m2
03:24 69.7 °F /  20.9 °C 68.5 °F /  20.3 °C 29.45in /  997.2hPa SSW 2.9mph /  4.7km/h 13mph /  20.9km/h 96% 0.00in /  0mm 0 W/m2
03:29 69.6 °F /  20.9 °C 68.3 °F /  20.2 °C 29.45in /  997.2hPa SSW 3mph /  4.8km/h 13mph /  20.9km/h 95.6% 0.00in /  0mm 0 W/m2
03:34 69.6 °F /  20.9 °C 68.1 °F /  20.1 °C 29.45in /  997.2hPa South 3mph /  4.8km/h 13mph /  20.9km/h 95% 0.00in /  0mm 0 W/m2
03:39 69.7 °F /  20.9 °C 68.2 °F /  20.1 °C 29.45in /  997.2hPa South 4.8mph /  7.7km/h 11mph /  17.7km/h 95% 0.00in /  0mm 0 W/m2
03:44 69.8 °F /  21 °C 68.3 °F /  20.2 °C 29.44in /  996.8hPa SSW 3.8mph /  6.1km/h 11mph /  17.7km/h 95% 0.00in /  0mm 0 W/m2
03:49 69.9 °F /  21.1 °C 68.1 °F /  20.1 °C 29.43in /  996.5hPa South 5.7mph /  9.2km/h 15mph /  24.1km/h 94.1% 0.00in /  0mm 0 W/m2
03:54 70 °F /  21.1 °C 68.2 °F /  20.1 °C 29.42in /  996.2hPa South 4.9mph /  7.9km/h 15mph /  24.1km/h 94% 0.00in /  0mm 0 W/m2
03:59 70.1 °F /  21.2 °C 68.3 °F /  20.2 °C 29.42in /  996.2hPa SSW 4mph /  6.4km/h 15mph /  24.1km/h 94% 0.00in /  0mm 0 W/m2
04:00 70.1 °F /  21.2 °C 68.3 °F /  20.2 °C 29.42in /  996.2hPa SSW 9mph /  14.5km/h 15mph /  24.1km/h 94% 0.00in /  0mm 0 W/m2
04:09 70.2 °F /  21.2 °C 68.4 °F /  20.2 °C 29.42in /  996.2hPa South 4.4mph /  7.1km/h 15mph /  24.1km/h 94% 0.00in /  0mm 0 W/m2
04:14 70.2 °F /  21.2 °C 68.4 °F /  20.2 °C 29.42in /  996.2hPa SSW 3.1mph /  5km/h 15mph /  24.1km/h 94% 0.00in /  0mm 0 W/m2
04:19 70.2 °F /  21.2 °C 68.4 °F /  20.2 °C 29.42in /  996.2hPa South 3.1mph /  5km/h 15mph /  24.1km/h 94% 0.00in /  0mm 0 W/m2
04:24 70.1 °F /  21.2 °C 68.3 °F /  20.2 °C 29.41in /  995.8hPa South 4mph /  6.4km/h 15mph /  24.1km/h 94% 0.00in /  0mm 0 W/m2
04:29 70.2 °F /  21.2 °C 68.1 °F /  20.1 °C 29.41in /  995.8hPa South 5.3mph /  8.5km/h 19mph /  30.6km/h 93% 0.00in /  0mm 0 W/m2
04:34 70.3 °F /  21.3 °C 68.1 °F /  20.1 °C 29.41in /  995.8hPa South 3.9mph /  6.3km/h 19mph /  30.6km/h 93% 0.00in /  0mm 0 W/m2
04:39 70.4 °F /  21.3 °C 68.3 °F /  20.2 °C 29.40in /  995.5hPa South 5.7mph /  9.2km/h 12mph /  19.3km/h 93% 0.00in /  0mm 0 W/m2
04:44 70.4 °F /  21.3 °C 68.1 °F /  20.1 °C 29.40in /  995.5hPa South 3.9mph /  6.3km/h 12mph /  19.3km/h 92.5% 0.00in /  0mm 0 W/m2
04:49 70.5 °F /  21.4 °C 68 °F /  20 °C 29.40in /  995.5hPa SSW 4.5mph /  7.2km/h 12mph /  19.3km/h 92% 0.00in /  0mm 0 W/m2
04:54 70.5 °F /  21.4 °C 68.1 °F /  20.1 °C 29.39in /  995.1hPa South 3.6mph /  5.8km/h 12mph /  19.3km/h 92% 0.00in /  0mm 0 W/m2
04:59 70.5 °F /  21.4 °C 68.1 °F /  20.1 °C 29.39in /  995.1hPa South 3.3mph /  5.3km/h 13mph /  20.9km/h 92% 0.00in /  0mm 0 W/m2
05:04 70.6 °F /  21.4 °C 68.1 °F /  20.1 °C 29.38in /  994.8hPa SSW 3.7mph /  6km/h 13mph /  20.9km/h 92% 0.01in /  0.25mm 0 W/m2
05:09 70.5 °F /  21.4 °C 68.1 °F /  20.1 °C 29.38in /  994.8hPa SSW 3.6mph /  5.8km/h 9mph /  14.5km/h 92% 0.03in /  0.76mm 0 W/m2
05:14 70.3 °F /  21.3 °C 68 °F /  20 °C 29.38in /  994.8hPa South 3.4mph /  5.5km/h 9mph /  14.5km/h 92.4% 0.03in /  0.76mm 0 W/m2
05:19 70 °F /  21.1 °C 67.9 °F /  19.9 °C 29.38in /  994.8hPa South 3.2mph /  5.1km/h 10mph /  16.1km/h 93% 0.04in /  1.02mm 0 W/m2
05:24 69.9 °F /  21.1 °C 67.8 °F /  19.9 °C 29.37in /  994.5hPa South 5.9mph /  9.5km/h 12mph /  19.3km/h 93.1% 0.04in /  1.02mm 0 W/m2
05:29 69.8 °F /  21 °C 68 °F /  20 °C 29.37in /  994.5hPa SSW 3.6mph /  5.8km/h 12mph /  19.3km/h 94% 0.04in /  1.02mm 0 W/m2
05:34 69.7 °F /  20.9 °C 67.9 °F /  19.9 °C 29.37in /  994.5hPa SSW 4mph /  6.4km/h 12mph /  19.3km/h 94% 0.04in /  1.02mm 0 W/m2
05:39 69.7 °F /  20.9 °C 67.9 °F /  19.9 °C 29.37in /  994.5hPa SSW 4.2mph /  6.8km/h 12mph /  19.3km/h 94% 0.04in /  1.02mm 0 W/m2
05:44 69.7 °F /  20.9 °C 67.9 °F /  19.9 °C 29.36in /  994.1hPa South 5.5mph /  8.9km/h 19mph /  30.6km/h 94% 0.04in /  1.02mm 0 W/m2
05:49 69.7 °F /  20.9 °C 67.9 °F /  19.9 °C 29.36in /  994.1hPa SSW 2.9mph /  4.7km/h 19mph /  30.6km/h 94% 0.06in /  1.52mm 0 W/m2
05:54 69.6 °F /  20.9 °C 67.8 °F /  19.9 °C 29.35in /  993.8hPa SSW 3.2mph /  5.1km/h 19mph /  30.6km/h 94% 0.07in /  1.78mm 0 W/m2
05:59 69.5 °F /  20.8 °C 67.8 °F /  19.9 °C 29.35in /  993.8hPa South 3.2mph /  5.1km/h 19mph /  30.6km/h 94.3% 0.07in /  1.78mm 0 W/m2
06:04 69.4 °F /  20.8 °C 67.9 °F /  19.9 °C 29.35in /  993.8hPa SSW 4.9mph /  7.9km/h 19mph /  30.6km/h 94.8% 0.07in /  1.78mm 0 W/m2
06:09 69.4 °F /  20.8 °C 67.9 °F /  19.9 °C 29.35in /  993.8hPa South 3.5mph /  5.6km/h 17mph /  27.4km/h 95% 0.07in /  1.78mm 0 W/m2
06:14 69.4 °F /  20.8 °C 67.9 °F /  19.9 °C 29.35in /  993.8hPa SSW 2.6mph /  4.2km/h 17mph /  27.4km/h 95% 0.07in /  1.78mm 0 W/m2
06:19 69.3 °F /  20.7 °C 67.8 °F /  19.9 °C 29.35in /  993.8hPa SSW 2.3mph /  3.7km/h 17mph /  27.4km/h 95% 0.07in /  1.78mm 0 W/m2
06:24 69.2 °F /  20.7 °C 67.7 °F /  19.8 °C 29.35in /  993.8hPa SSW 3.3mph /  5.3km/h 17mph /  27.4km/h 95% 0.07in /  1.78mm 0 W/m2
06:29 69.1 °F /  20.6 °C 67.7 °F /  19.8 °C 29.35in /  993.8hPa SSW 2.3mph /  3.7km/h 17mph /  27.4km/h 95% 0.07in /  1.78mm 0 W/m2
06:34 69.1 °F /  20.6 °C 67.6 °F /  19.8 °C 29.35in /  993.8hPa SSW 2.1mph /  3.4km/h 17mph /  27.4km/h 95% 0.07in /  1.78mm 0 W/m2
06:39 69 °F /  20.6 °C 67.5 °F /  19.7 °C 29.35in /  993.8hPa SSW 2.9mph /  4.7km/h 10mph /  16.1km/h 95% 0.03in /  0.76mm 0 W/m2
06:44 68.9 °F /  20.5 °C 67.4 °F /  19.7 °C 29.35in /  993.8hPa SW 1.7mph /  2.7km/h 10mph /  16.1km/h 95% 0.03in /  0.76mm 0 W/m2
06:49 68.8 °F /  20.4 °C 67.3 °F /  19.6 °C 29.35in /  993.8hPa SW 1.5mph /  2.4km/h 10mph /  16.1km/h 95% 0.03in /  0.76mm 0 W/m2
06:54 68.8 °F /  20.4 °C 67.3 °F /  19.6 °C 29.35in /  993.8hPa SSW 0.8mph /  1.3km/h 10mph /  16.1km/h 95% 0.03in /  0.76mm 0 W/m2
06:59 68.7 °F /  20.4 °C 67.2 °F /  19.6 °C 29.35in /  993.8hPa SSW 0.5mph /  0.8km/h 10mph /  16.1km/h 95% 0.03in /  0.76mm 5 W/m2
07:04 68.6 °F /  20.3 °C 67.2 °F /  19.6 °C 29.35in /  993.8hPa South 0.1mph /  0.2km/h 10mph /  16.1km/h 95% 0.03in /  0.76mm 7 W/m2
07:09 68.6 °F /  20.3 °C 67.1 °F /  19.5 °C 29.35in /  993.8hPa Calm   3mph /  4.8km/h 95% 0.00in /  0mm 9 W/m2
07:14 68.6 °F /  20.3 °C 67.1 °F /  19.5 °C 29.35in /  993.8hPa Calm   3mph /  4.8km/h 95% 0.00in /  0mm 12 W/m2
07:19 68.5 °F /  20.3 °C 67 °F /  19.4 °C 29.36in /  994.1hPa South 0.1mph /  0.2km/h 3mph /  4.8km/h 95% 0.00in /  0mm 12 W/m2
07:24 68.5 °F /  20.3 °C 67 °F /  19.4 °C 29.36in /  994.1hPa South 0.1mph /  0.2km/h 3mph /  4.8km/h 95% 0.00in /  0mm 11 W/m2
07:29 68.4 °F /  20.2 °C 67 °F /  19.4 °C 29.36in /  994.1hPa SSW 0.2mph /  0.3km/h 4mph /  6.4km/h 95.3% 0.00in /  0mm 7 W/m2
07:34 68.4 °F /  20.2 °C 67.2 °F /  19.6 °C 29.36in /  994.1hPa SSW 0.1mph /  0.2km/h 4mph /  6.4km/h 96% 0.00in /  0mm 7 W/m2
07:39 68.3 °F /  20.2 °C 67.1 °F /  19.5 °C 29.40in /  995.5hPa WNW 5mph /  8km/h 18mph /  29km/h 96% 0.07in /  1.78mm 7 W/m2
07:44 67.8 °F /  19.9 °C 66.4 °F /  19.1 °C 29.40in /  995.5hPa West 7.4mph /  11.9km/h 20mph /  32.2km/h 95.1% 0.15in /  3.81mm 11 W/m2
07:49 66.8 °F /  19.3 °C 65.1 °F /  18.4 °C 29.40in /  995.5hPa WNW 4.3mph /  6.9km/h 20mph /  32.2km/h 94% 0.16in /  4.06mm 11 W/m2
07:54 66.4 °F /  19.1 °C 64.8 °F /  18.2 °C 29.40in /  995.5hPa WNW 3.7mph /  6km/h 20mph /  32.2km/h 94.4% 0.17in /  4.32mm 18 W/m2
07:59 66.2 °F /  19 °C 64.7 °F /  18.2 °C 29.40in /  995.5hPa WNW 0.8mph /  1.3km/h 20mph /  32.2km/h 95% 0.17in /  4.32mm 23 W/m2
08:00 66.1 °F /  18.9 °C 64.6 °F /  18.1 °C 29.40in /  995.5hPa WNW 2mph /  3.2km/h 20mph /  32.2km/h 95% 0.17in /  4.32mm 23 W/m2
08:09 66 °F /  18.9 °C 64.5 °F /  18.1 °C 29.41in /  995.8hPa Calm     95% 0.18in /  4.57mm 37 W/m2
08:14 65.9 °F /  18.8 °C 64.4 °F /  18 °C 29.41in /  995.8hPa Calm     95% 0.18in /  4.57mm 32 W/m2
08:19 65.9 °F /  18.8 °C 64.5 °F /  18.1 °C 29.42in /  996.2hPa Calm     95% 0.18in /  4.57mm 32 W/m2
08:24 66 °F /  18.9 °C 64.5 °F /  18.1 °C 29.42in /  996.2hPa Calm     95% 0.18in /  4.57mm 28 W/m2
08:29 65.9 °F /  18.8 °C 64.4 °F /  18 °C 29.42in /  996.2hPa Calm     95% 0.18in /  4.57mm 37 W/m2
08:34 65.8 °F /  18.8 °C 64.3 °F /  17.9 °C 29.42in /  996.2hPa WNW 1.6mph /  2.6km/h 7mph /  11.3km/h 95% 0.18in /  4.57mm 65 W/m2
08:39 65.6 °F /  18.7 °C 64.2 °F /  17.9 °C 29.42in /  996.2hPa WNW 0.1mph /  0.2km/h 7mph /  11.3km/h 95% 0.18in /  4.57mm 84 W/m2
08:44 65.6 °F /  18.7 °C 64.1 °F /  17.8 °C 29.42in /  996.2hPa West 0.7mph /  1.1km/h 7mph /  11.3km/h 95% 0.18in /  4.57mm 132 W/m2
08:49 65.5 °F /  18.6 °C 64.1 °F /  17.8 °C 29.42in /  996.2hPa West 0.5mph /  0.8km/h 7mph /  11.3km/h 95% 0.18in /  4.57mm 125 W/m2
08:54 65.5 °F /  18.6 °C 64 °F /  17.8 °C 29.42in /  996.2hPa NW 2.2mph /  3.5km/h 7mph /  11.3km/h 95% 0.18in /  4.57mm 320 W/m2
08:59 65.7 °F /  18.7 °C 64.5 °F /  18.1 °C 29.43in /  996.5hPa NW 1mph /  1.6km/h 7mph /  11.3km/h 95.9% 0.18in /  4.57mm 343 W/m2
09:04 66 °F /  18.9 °C 64.8 °F /  18.2 °C 29.43in /  996.5hPa WNW 2.6mph /  4.2km/h 9mph /  14.5km/h 95.8% 0.18in /  4.57mm 341 W/m2
09:09 66.2 °F /  19 °C 64.8 °F /  18.2 °C 29.43in /  996.5hPa West 3.1mph /  5km/h 11mph /  17.7km/h 95.1% 0.01in /  0.25mm 232 W/m2
09:14 66.2 °F /  19 °C 64.2 °F /  17.9 °C 29.44in /  996.8hPa WNW 10mph /  16.1km/h 24mph /  38.6km/h 93.5% 0.01in /  0.25mm 306 W/m2
09:19 66.3 °F /  19.1 °C 64 °F /  17.8 °C 29.44in /  996.8hPa WNW 9mph /  14.5km/h 24mph /  38.6km/h 92.1% 0.01in /  0.25mm 334 W/m2
09:24 66.7 °F /  19.3 °C 63.7 °F /  17.6 °C 29.45in /  997.2hPa WNW 4.6mph /  7.4km/h 24mph /  38.6km/h 90.2% 0.01in /  0.25mm 315 W/m2
09:29 67.1 °F /  19.5 °C 64 °F /  17.8 °C 29.46in /  997.5hPa WNW 3.6mph /  5.8km/h 24mph /  38.6km/h 90% 0.01in /  0.25mm 315 W/m2
09:34 67.3 °F /  19.6 °C 63.8 °F /  17.7 °C 29.46in /  997.5hPa WNW 6.6mph /  10.6km/h 24mph /  38.6km/h 88.3% 0.01in /  0.25mm 229 W/m2
09:39 67.5 °F /  19.7 °C 63.4 °F /  17.4 °C 29.47in /  997.9hPa WNW 7.3mph /  11.7km/h 23mph /  37km/h 86.6% 0.00in /  0mm 225 W/m2
09:44 67.6 °F /  19.8 °C 63 °F /  17.2 °C 29.48in /  998.2hPa WNW 6.2mph /  10km/h 23mph /  37km/h 85.3% 0.00in /  0mm 271 W/m2
09:49 67.7 °F /  19.8 °C 62.8 °F /  17.1 °C 29.48in /  998.2hPa WNW 7.5mph /  12.1km/h 23mph /  37km/h 84.3% 0.00in /  0mm 332 W/m2
09:54 67.8 °F /  19.9 °C 62.8 °F /  17.1 °C 29.48in /  998.2hPa NW 6.7mph /  10.8km/h 23mph /  37km/h 83.9% 0.00in /  0mm 366 W/m2
09:59 68 °F /  20 °C 62.5 °F /  16.9 °C 29.49in /  998.5hPa WNW 8.9mph /  14.3km/h 23mph /  37km/h 82.6% 0.00in /  0mm 220 W/m2
10:04 68.1 °F /  20.1 °C 62.4 °F /  16.9 °C 29.49in /  998.5hPa WNW 3.4mph /  5.5km/h 23mph /  37km/h 82% 0.00in /  0mm 121 W/m2
10:09 68.2 °F /  20.1 °C 62.7 °F /  17.1 °C 29.49in /  998.5hPa NW 3.7mph /  6km/h 13mph /  20.9km/h 82.5% 0.00in /  0mm 109 W/m2
10:14 68.2 °F /  20.1 °C 62.5 °F /  16.9 °C 29.50in /  998.9hPa NW 0.8mph /  1.3km/h 13mph /  20.9km/h 82% 0.00in /  0mm 132 W/m2
10:19 68.3 °F /  20.2 °C 62.8 °F /  17.1 °C 29.50in /  998.9hPa West 4.3mph /  6.9km/h 13mph /  20.9km/h 82.7% 0.00in /  0mm 276 W/m2
10:24 68.4 °F /  20.2 °C 62.4 °F /  16.9 °C 29.50in /  998.9hPa WNW 4.5mph /  7.2km/h 13mph /  20.9km/h 81.2% 0.00in /  0mm 148 W/m2
10:29 68.5 °F /  20.3 °C 62.3 °F /  16.8 °C 29.50in /  998.9hPa WNW 3.8mph /  6.1km/h 13mph /  20.9km/h 80.7% 0.00in /  0mm 548 W/m2
10:34 68.8 °F /  20.4 °C 62.6 °F /  17 °C 29.50in /  998.9hPa WNW 4.4mph /  7.1km/h 17mph /  27.4km/h 80.6% 0.00in /  0mm 548 W/m2
10:39 69.5 °F /  20.8 °C 62.4 °F /  16.9 °C 29.50in /  998.9hPa WNW 3mph /  4.8km/h 17mph /  27.4km/h 78.1% 0.00in /  0mm 501 W/m2
10:44 70.1 °F /  21.2 °C 62.8 °F /  17.1 °C 29.51in /  999.2hPa WNW 4mph /  6.4km/h 18mph /  29km/h 77.6% 0.00in /  0mm 410 W/m2
10:49 70.6 °F /  21.4 °C 62.2 °F /  16.8 °C 29.51in /  999.2hPa WNW 6mph /  9.7km/h 18mph /  29km/h 74.9% 0.00in /  0mm 487 W/m2
10:54 70.6 °F /  21.4 °C 62.3 °F /  16.8 °C 29.50in /  998.9hPa WNW 6.7mph /  10.8km/h 19mph /  30.6km/h 75% 0.00in /  0mm 424 W/m2
10:59 70.6 °F /  21.4 °C 61.6 °F /  16.4 °C 29.50in /  998.9hPa NW 10.3mph /  16.6km/h 20mph /  32.2km/h 73.2% 0.00in /  0mm 162 W/m2
11:04 70.4 °F /  21.3 °C 61.4 °F /  16.3 °C 29.51in /  999.2hPa WNW 7.3mph /  11.7km/h 20mph /  32.2km/h 73.2% 0.00in /  0mm 204 W/m2
11:09 70.3 °F /  21.3 °C 61 °F /  16.1 °C 29.51in /  999.2hPa WNW 3.7mph /  6km/h 17mph /  27.4km/h 72.3% 0.00in /  0mm 204 W/m2
11:14 70.3 °F /  21.3 °C 61.1 °F /  16.2 °C 29.52in /  999.5hPa NW 6.4mph /  10.3km/h 17mph /  27.4km/h 72.6% 0.00in /  0mm 199 W/m2
11:19 70.2 °F /  21.2 °C 60.5 °F /  15.8 °C 29.52in /  999.5hPa WNW 6.8mph /  10.9km/h 17mph /  27.4km/h 71.2% 0.00in /  0mm 330 W/m2
11:24 70.2 °F /  21.2 °C 60.4 °F /  15.8 °C 29.53in /  999.9hPa WNW 7.4mph /  11.9km/h 17mph /  27.4km/h 71% 0.00in /  0mm 199 W/m2
11:29 70 °F /  21.1 °C 60 °F /  15.6 °C 29.53in /  999.9hPa WNW 3.5mph /  5.6km/h 17mph /  27.4km/h 70.5% 0.00in /  0mm 171 W/m2
11:34 69.8 °F /  21 °C 60.3 °F /  15.7 °C 29.53in /  999.9hPa NW 3.8mph /  6.1km/h 17mph /  27.4km/h 71.6% 0.00in /  0mm 227 W/m2
11:39 70 °F /  21.1 °C 59.7 °F /  15.4 °C 29.53in /  999.9hPa NW 10.5mph /  16.9km/h 24mph /  38.6km/h 70% 0.00in /  0mm 330 W/m2
11:44 69.9 °F /  21.1 °C 59 °F /  15 °C 29.53in /  999.9hPa NW 6.5mph /  10.5km/h 24mph /  38.6km/h 68.5% 0.00in /  0mm 330 W/m2
11:49 69.7 °F /  20.9 °C 59.1 °F /  15.1 °C 29.53in /  999.9hPa NW 7.5mph /  12.1km/h 24mph /  38.6km/h 68.8% 0.00in /  0mm 239 W/m2
11:54 69.6 °F /  20.9 °C 59 °F /  15 °C 29.53in /  999.9hPa NW 5.8mph /  9.3km/h 24mph /  38.6km/h 69% 0.00in /  0mm 265 W/m2
11:59 69.6 °F /  20.9 °C 59 °F /  15 °C 29.53in /  999.9hPa NW 6.3mph /  10.1km/h 24mph /  38.6km/h 69% 0.00in /  0mm 253 W/m2
12:00 69.5 °F /  20.8 °C 58.9 °F /  14.9 °C 29.53in /  999.9hPa NW 10mph /  16.1km/h 24mph /  38.6km/h 69% 0.00in /  0mm 77 W/m2
12:09 69.5 °F /  20.8 °C 58.5 °F /  14.7 °C 29.54in /  1000.2hPa NW 4.7mph /  7.6km/h 13mph /  20.9km/h 68.2% 0.01in /  0.25mm 176 W/m2
12:14 69.4 °F /  20.8 °C 59 °F /  15 °C 29.54in /  1000.2hPa NW 2.9mph /  4.7km/h 13mph /  20.9km/h 69.5% 0.01in /  0.25mm 329 W/m2
12:19 69.4 °F /  20.8 °C 58.8 °F /  14.9 °C 29.54in /  1000.2hPa NW 3.8mph /  6.1km/h 13mph /  20.9km/h 69.1% 0.01in /  0.25mm 329 W/m2
12:24 69.3 °F /  20.7 °C 58.6 °F /  14.8 °C 29.55in /  1000.6hPa NW 3.9mph /  6.3km/h 13mph /  20.9km/h 68.9% 0.01in /  0.25mm 86 W/m2
12:29 69 °F /  20.6 °C 58.4 °F /  14.7 °C 29.55in /  1000.6hPa WNW 6.1mph /  9.8km/h 15mph /  24.1km/h 68.8% 0.01in /  0.25mm 167 W/m2
12:34 68.7 °F /  20.4 °C 58.2 °F /  14.6 °C 29.56in /  1000.9hPa NW 6.2mph /  10km/h 17mph /  27.4km/h 69.1% 0.01in /  0.25mm 171 W/m2
12:39 68.4 °F /  20.2 °C 57.9 °F /  14.4 °C 29.56in /  1000.9hPa WNW 4.8mph /  7.7km/h 17mph /  27.4km/h 69% 0.01in /  0.25mm 163 W/m2
13:00 67.7 °F /  19.8 °C 57.6 °F /  14.2 °C 29.57in /  1001.2hPa NW 5mph /  8km/h 17mph /  27.4km/h 70% 0.01in /  0.25mm 163 W/m2
13:30 69.2 °F /  20.7 °C 57 °F /  13.9 °C 29.58in /  1001.6hPa NW 3mph /  4.8km/h 13mph /  20.9km/h 65% 0.01in /  0.25mm 241 W/m2
14:30 68.5 °F /  20.3 °C 55.9 °F /  13.3 °C 29.59in /  1001.9hPa WNW 1mph /  1.6km/h 12mph /  19.3km/h 64% 0.00in /  0mm 92 W/m2
15:30 66.6 °F /  19.2 °C 54.5 °F /  12.5 °C 29.62in /  1002.9hPa WNW 2mph /  3.2km/h 13mph /  20.9km/h 65% 0.00in /  0mm 20 W/m2
16:04 65.9 °F /  18.8 °C 54.6 °F /  12.6 °C 29.62in /  1002.9hPa WNW 2.5mph /  4km/h 13mph /  20.9km/h 66.9% 0.00in /  0mm 20 W/m2
16:09 65.8 °F /  18.8 °C 54.5 °F /  12.5 °C 29.63in /  1003.3hPa WNW 0.8mph /  1.3km/h 5mph /  8km/h 67% 0.00in /  0mm 9 W/m2
16:14 65.5 °F /  18.6 °C 54.3 °F /  12.4 °C 29.63in /  1003.3hPa WNW 0.6mph /  1km/h 5mph /  8km/h 67% 0.00in /  0mm 7 W/m2
16:19 65.2 °F /  18.4 °C 54.2 °F /  12.3 °C 29.63in /  1003.3hPa WNW 0.5mph /  0.8km/h 5mph /  8km/h 67.5% 0.00in /  0mm 5 W/m2
16:24 65 °F /  18.3 °C 54.2 °F /  12.3 °C 29.63in /  1003.3hPa Calm   5mph /  8km/h 68% 0.00in /  0mm 0 W/m2
16:29 64.7 °F /  18.2 °C 53.9 °F /  12.2 °C 29.63in /  1003.3hPa Calm   5mph /  8km/h 68% 0.00in /  0mm 0 W/m2
16:34 64.5 °F /  18.1 °C 54 °F /  12.2 °C 29.63in /  1003.3hPa Calm   5mph /  8km/h 68.7% 0.00in /  0mm 0 W/m2
16:39 64.2 °F /  17.9 °C 53.8 °F /  12.1 °C 29.64in /  1003.6hPa Calm   1mph /  1.6km/h 69% 0.00in /  0mm 0 W/m2
16:44 63.9 °F /  17.7 °C 53.8 °F /  12.1 °C 29.64in /  1003.6hPa WNW 0.5mph /  0.8km/h 3mph /  4.8km/h 69.6% 0.00in /  0mm 0 W/m2
16:49 63.6 °F /  17.6 °C 54 °F /  12.2 °C 29.64in /  1003.6hPa NW 2.4mph /  3.9km/h 12mph /  19.3km/h 71% 0.00in /  0mm 0 W/m2
16:54 63.2 °F /  17.3 °C 53.6 °F /  12 °C 29.65in /  1003.9hPa NW 1.7mph /  2.7km/h 12mph /  19.3km/h 71% 0.00in /  0mm 0 W/m2
16:59 62.9 °F /  17.2 °C 53.4 °F /  11.9 °C 29.65in /  1003.9hPa NW 1.1mph /  1.8km/h 12mph /  19.3km/h 71.2% 0.00in /  0mm 0 W/m2
17:04 62.7 °F /  17.1 °C 53.5 °F /  11.9 °C 29.65in /  1003.9hPa Calm   12mph /  19.3km/h 72% 0.00in /  0mm 0 W/m2
17:09 62.4 °F /  16.9 °C 53.4 °F /  11.9 °C 29.65in /  1003.9hPa NW 0.8mph /  1.3km/h 4mph /  6.4km/h 72.3% 0.00in /  0mm 0 W/m2
17:14 62.3 °F /  16.8 °C 53.2 °F /  11.8 °C 29.66in /  1004.3hPa NW 0.1mph /  0.2km/h 4mph /  6.4km/h 72.2% 0.00in /  0mm 0 W/m2
17:19 62.1 °F /  16.7 °C 53.3 °F /  11.8 °C 29.66in /  1004.3hPa NW 0.8mph /  1.3km/h 6mph /  9.7km/h 73% 0.00in /  0mm 0 W/m2
17:24 61.9 °F /  16.6 °C 53.3 °F /  11.8 °C 29.66in /  1004.3hPa NW 1mph /  1.6km/h 6mph /  9.7km/h 73.3% 0.00in /  0mm 0 W/m2
17:29 61.8 °F /  16.6 °C 53.4 °F /  11.9 °C 29.66in /  1004.3hPa NW 1.7mph /  2.7km/h 6mph /  9.7km/h 74% 0.00in /  0mm 0 W/m2
17:34 61.6 °F /  16.4 °C 53.2 °F /  11.8 °C 29.66in /  1004.3hPa Calm   6mph /  9.7km/h 74% 0.00in /  0mm 0 W/m2
17:39 61.4 °F /  16.3 °C 53.1 °F /  11.7 °C 29.66in /  1004.3hPa NW 0.1mph /  0.2km/h 2mph /  3.2km/h 74% 0.00in /  0mm 0 W/m2
17:44 61.2 °F /  16.2 °C 52.9 °F /  11.6 °C 29.66in /  1004.3hPa Calm   2mph /  3.2km/h 74% 0.00in /  0mm 0 W/m2
17:49 61 °F /  16.1 °C 53.1 °F /  11.7 °C 29.66in /  1004.3hPa NW 0.5mph /  0.8km/h 4mph /  6.4km/h 75% 0.00in /  0mm 0 W/m2
17:54 60.8 °F /  16 °C 52.9 °F /  11.6 °C 29.66in /  1004.3hPa NW 0.2mph /  0.3km/h 4mph /  6.4km/h 75% 0.00in /  0mm 0 W/m2
17:59 60.7 °F /  15.9 °C 52.7 °F /  11.5 °C 29.66in /  1004.3hPa NW 0.3mph /  0.5km/h 4mph /  6.4km/h 75% 0.00in /  0mm 0 W/m2
18:04 60.5 °F /  15.8 °C 52.8 °F /  11.6 °C 29.68in /  1005hPa Calm   4mph /  6.4km/h 75.5% 0.00in /  0mm 0 W/m2
18:09 60.4 °F /  15.8 °C 52.8 °F /  11.6 °C 29.68in /  1005hPa NW 0.2mph /  0.3km/h 3mph /  4.8km/h 76% 0.00in /  0mm 0 W/m2
18:14 60.3 °F /  15.7 °C 52.7 °F /  11.5 °C 29.69in /  1005.3hPa Calm   3mph /  4.8km/h 76% 0.00in /  0mm 0 W/m2
18:19 60.2 °F /  15.7 °C 52.6 °F /  11.4 °C 29.69in /  1005.3hPa Calm   3mph /  4.8km/h 76% 0.00in /  0mm 0 W/m2
18:24 60 °F /  15.6 °C 52.8 °F /  11.6 °C 29.69in /  1005.3hPa Calm   3mph /  4.8km/h 76.8% 0.00in /  0mm 0 W/m2
18:29 59.9 °F /  15.5 °C 52.6 °F /  11.4 °C 29.70in /  1005.6hPa NW 0.9mph /  1.4km/h 6mph /  9.7km/h 77% 0.00in /  0mm 0 W/m2
18:34 59.7 °F /  15.4 °C 52.5 °F /  11.4 °C 29.70in /  1005.6hPa NW 2.3mph /  3.7km/h 7mph /  11.3km/h 77% 0.00in /  0mm 0 W/m2
18:39 59.6 °F /  15.3 °C 52.5 °F /  11.4 °C 29.70in /  1005.6hPa NW 1.2mph /  1.9km/h 7mph /  11.3km/h 77.4% 0.00in /  0mm 0 W/m2
18:44 59.5 °F /  15.3 °C 52.6 °F /  11.4 °C 29.71in /  1006hPa NW 1.6mph /  2.6km/h 7mph /  11.3km/h 78% 0.00in /  0mm 0 W/m2
18:49 59.4 °F /  15.2 °C 52.6 °F /  11.4 °C 29.71in /  1006hPa NW 0.8mph /  1.3km/h 7mph /  11.3km/h 78% 0.00in /  0mm 0 W/m2
18:54 59.3 °F /  15.2 °C 52.4 °F /  11.3 °C 29.71in /  1006hPa NW 0.1mph /  0.2km/h 7mph /  11.3km/h 77.7% 0.00in /  0mm 0 W/m2
18:59 59.3 °F /  15.2 °C 52.4 °F /  11.3 °C 29.71in /  1006hPa Calm   7mph /  11.3km/h 78% 0.00in /  0mm 0 W/m2
19:04 59.2 °F /  15.1 °C 52.3 °F /  11.3 °C 29.71in /  1006hPa NW 0.1mph /  0.2km/h 7mph /  11.3km/h 78% 0.00in /  0mm 0 W/m2
19:09 59.1 °F /  15.1 °C 52.2 °F /  11.2 °C 29.72in /  1006.3hPa Calm   2mph /  3.2km/h 77.8% 0.00in /  0mm 0 W/m2
19:14 59.1 °F /  15.1 °C 52.2 °F /  11.2 °C 29.72in /  1006.3hPa Calm   2mph /  3.2km/h 78% 0.00in /  0mm 0 W/m2
19:19 59 °F /  15 °C 52.1 °F /  11.2 °C 29.72in /  1006.3hPa Calm   2mph /  3.2km/h 77.8% 0.00in /  0mm 0 W/m2
19:24 58.9 °F /  14.9 °C 51.7 °F /  10.9 °C 29.72in /  1006.3hPa NW 0.1mph /  0.2km/h 2mph /  3.2km/h 77% 0.00in /  0mm 0 W/m2
19:29 58.8 °F /  14.9 °C 51.6 °F /  10.9 °C 29.72in /  1006.3hPa Calm   2mph /  3.2km/h 77.2% 0.00in /  0mm 0 W/m2
19:34 58.6 °F /  14.8 °C 51.6 °F /  10.9 °C 29.72in /  1006.3hPa Calm   2mph /  3.2km/h 77.5% 0.00in /  0mm 0 W/m2
19:39 58.5 °F /  14.7 °C 51.6 °F /  10.9 °C 29.72in /  1006.3hPa NW 0.3mph /  0.5km/h 3mph /  4.8km/h 78% 0.00in /  0mm 0 W/m2
19:44 58.3 °F /  14.6 °C 51.5 °F /  10.8 °C 29.72in /  1006.3hPa NW 0.3mph /  0.5km/h 3mph /  4.8km/h 78% 0.00in /  0mm 0 W/m2
19:49 58.2 °F /  14.6 °C 51.4 °F /  10.8 °C 29.72in /  1006.3hPa NW 1.2mph /  1.9km/h 4mph /  6.4km/h 78% 0.00in /  0mm 0 W/m2
20:04 57.9 °F /  14.4 °C 50.4 °F /  10.2 °C 29.72in /  1006.3hPa Calm     76% 0.00in /  0mm 0 W/m2
20:09 57.9 °F /  14.4 °C 50.4 °F /  10.2 °C 29.72in /  1006.3hPa NW 0.9mph /  1.4km/h 5mph /  8km/h 76% 0.00in /  0mm 0 W/m2
20:14 57.8 °F /  14.3 °C 50.3 °F /  10.2 °C 29.72in /  1006.3hPa NW 0.7mph /  1.1km/h 6mph /  9.7km/h 76% 0.00in /  0mm 0 W/m2
20:19 57.8 °F /  14.3 °C 50.2 °F /  10.1 °C 29.72in /  1006.3hPa NW 0.1mph /  0.2km/h 6mph /  9.7km/h 75.8% 0.00in /  0mm 0 W/m2
20:24 57.7 °F /  14.3 °C 50 °F /  10 °C 29.72in /  1006.3hPa NW 0.1mph /  0.2km/h 6mph /  9.7km/h 75.6% 0.00in /  0mm 0 W/m2
20:29 57.6 °F /  14.2 °C 49.9 °F /  9.9 °C 29.72in /  1006.3hPa Calm   6mph /  9.7km/h 75.4% 0.00in /  0mm 0 W/m2
20:34 57.5 °F /  14.2 °C 49.8 °F /  9.9 °C 29.72in /  1006.3hPa Calm   6mph /  9.7km/h 75.3% 0.00in /  0mm 0 W/m2
20:39 57.5 °F /  14.2 °C 49.6 °F /  9.8 °C 29.72in /  1006.3hPa Calm     75% 0.00in /  0mm 0 W/m2
20:44 57.4 °F /  14.1 °C 49.8 °F /  9.9 °C 29.72in /  1006.3hPa Calm     75.8% 0.00in /  0mm 0 W/m2
20:49 57.3 °F /  14.1 °C 50 °F /  10 °C 29.72in /  1006.3hPa Calm     76.7% 0.00in /  0mm 0 W/m2
20:54 57.3 °F /  14.1 °C 50.3 °F /  10.2 °C 29.72in /  1006.3hPa Calm     77.4% 0.00in /  0mm 0 W/m2
20:59 57.2 °F /  14 °C 50.4 °F /  10.2 °C 29.72in /  1006.3hPa Calm     78% 0.00in /  0mm 0 W/m2
21:04 57.1 °F /  13.9 °C 50.6 °F /  10.3 °C 29.73in /  1006.7hPa Calm   3mph /  4.8km/h 78.9% 0.00in /  0mm 0 W/m2
21:09 56.9 °F /  13.8 °C 50.7 °F /  10.4 °C 29.73in /  1006.7hPa NW 0.4mph /  0.6km/h 4mph /  6.4km/h 79.7% 0.00in /  0mm 0 W/m2
21:14 56.8 °F /  13.8 °C 50.7 °F /  10.4 °C 29.73in /  1006.7hPa Calm   4mph /  6.4km/h 80% 0.00in /  0mm 0 W/m2
21:19 56.6 °F /  13.7 °C 50.5 °F /  10.3 °C 29.73in /  1006.7hPa Calm   4mph /  6.4km/h 80% 0.00in /  0mm 0 W/m2
21:24 56.4 °F /  13.6 °C 50.4 °F /  10.2 °C 29.73in /  1006.7hPa Calm   4mph /  6.4km/h 80% 0.00in /  0mm 0 W/m2
21:29 56.3 °F /  13.5 °C 50.4 °F /  10.2 °C 29.73in /  1006.7hPa Calm   4mph /  6.4km/h 80.4% 0.00in /  0mm 0 W/m2
21:34 56.1 °F /  13.4 °C 50.2 °F /  10.1 °C 29.73in /  1006.7hPa NW 0.1mph /  0.2km/h 4mph /  6.4km/h 80.4% 0.00in /  0mm 0 W/m2
21:37 55.9 °F /  13.3 °C 49.5 °F /  9.7 °C 29.73in /  1006.7hPa NW 0.2mph /  0.3km/h 2mph /  3.2km/h 79% 0.00in /  0mm 0 W/m2
21:44 55.7 °F /  13.2 °C 49.1 °F /  9.5 °C 29.73in /  1006.7hPa Calm   2mph /  3.2km/h 78.3% 0.00in /  0mm 0 W/m2
21:49 55.6 °F /  13.1 °C 49.1 °F /  9.5 °C 29.73in /  1006.7hPa Calm   2mph /  3.2km/h 78.7% 0.00in /  0mm 0 W/m2
21:54 55.5 °F /  13.1 °C 48.8 °F /  9.3 °C 29.73in /  1006.7hPa Calm   2mph /  3.2km/h 78% 0.00in /  0mm 0 W/m2
21:59 55.4 °F /  13 °C 48.9 °F /  9.4 °C 29.73in /  1006.7hPa Calm   2mph /  3.2km/h 78.6% 0.00in /  0mm 0 W/m2
22:04 55.4 °F /  13 °C 49 °F /  9.4 °C 29.73in /  1006.7hPa Calm   2mph /  3.2km/h 79% 0.00in /  0mm 0 W/m2
22:09 55.3 °F /  12.9 °C 48.9 °F /  9.4 °C 29.73in /  1006.7hPa Calm     79% 0.00in /  0mm 0 W/m2
22:14 55.2 °F /  12.9 °C 48.8 °F /  9.3 °C 29.73in /  1006.7hPa Calm     79% 0.00in /  0mm 0 W/m2
22:19 55 °F /  12.8 °C 48.7 °F /  9.3 °C 29.73in /  1006.7hPa Calm     79% 0.00in /  0mm 0 W/m2
22:24 54.9 °F /  12.7 °C 48.6 °F /  9.2 °C 29.73in /  1006.7hPa NW 0.1mph /  0.2km/h 3mph /  4.8km/h 79% 0.00in /  0mm 0 W/m2
22:29 54.8 °F /  12.7 °C 48.3 °F /  9.1 °C 29.73in /  1006.7hPa Calm   3mph /  4.8km/h 78.6% 0.00in /  0mm 0 W/m2
22:34 54.7 °F /  12.6 °C 48.3 °F /  9.1 °C 29.73in /  1006.7hPa Calm   3mph /  4.8km/h 78.9% 0.00in /  0mm 0 W/m2
22:39 54.6 °F /  12.6 °C 48.2 °F /  9 °C 29.72in /  1006.3hPa Calm     79% 0.00in /  0mm 0 W/m2
22:44 54.5 °F /  12.5 °C 48.2 °F /  9 °C 29.72in /  1006.3hPa Calm     79% 0.00in /  0mm 0 W/m2
22:49 54.5 °F /  12.5 °C 48.4 °F /  9.1 °C 29.73in /  1006.7hPa Calm     79.7% 0.00in /  0mm 0 W/m2
22:54 54.4 °F /  12.4 °C 48.4 °F /  9.1 °C 29.73in /  1006.7hPa Calm     80% 0.00in /  0mm 0 W/m2
22:59 54.4 °F /  12.4 °C 48.3 °F /  9.1 °C 29.72in /  1006.3hPa Calm   1mph /  1.6km/h 79.7% 0.00in /  0mm 0 W/m2
23:00 54.4 °F /  12.4 °C 48 °F /  8.9 °C 29.72in /  1006.3hPa Calm   1mph /  1.6km/h 79% 0.00in /  0mm 0 W/m2
23:09 54.4 °F /  12.4 °C 48.4 °F /  9.1 °C 29.73in /  1006.7hPa Calm     80% 0.00in /  0mm 0 W/m2
23:14 54.3 °F /  12.4 °C 48.3 °F /  9.1 °C 29.73in /  1006.7hPa Calm     80% 0.00in /  0mm 0 W/m2
23:19 54.3 °F /  12.4 °C 48.4 °F /  9.1 °C 29.73in /  1006.7hPa Calm     80.3% 0.00in /  0mm 0 W/m2
23:24 54.3 °F /  12.4 °C 48.2 °F /  9 °C 29.73in /  1006.7hPa Calm     80% 0.00in /  0mm 0 W/m2
23:29 54.2 °F /  12.3 °C 48.2 °F /  9 °C 29.72in /  1006.3hPa Calm     80% 0.00in /  0mm 0 W/m2
23:34 54.2 °F /  12.3 °C 48.2 °F /  9 °C 29.73in /  1006.7hPa Calm     80% 0.00in /  0mm 0 W/m2
23:39 54.2 °F /  12.3 °C 48.2 °F /  9 °C 29.74in /  1007hPa Calm     80% 0.00in /  0mm 0 W/m2
23:44 54.2 °F /  12.3 °C 48.4 °F /  9.1 °C 29.74in /  1007hPa Calm     80.8% 0.00in /  0mm 0 W/m2
23:49 54.2 °F /  12.3 °C 48.5 °F /  9.2 °C 29.74in /  1007hPa Calm     81% 0.00in /  0mm 0 W/m2
23:54 54.1 °F /  12.3 °C 48.5 °F /  9.2 °C 29.73in /  1006.7hPa Calm     81.2% 0.00in /  0mm 0 W/m2
23:59 54.1 °F /  12.3 °C 48.6 °F /  9.2 °C 29.73in /  1006.7hPa Calm     81.5% 0.00in /  0mm 0 W/m2
Hartford County Weather
Compliments of Weather Underground - 4 mb